CPA965 ZSHC-VHHH
Flight info
| Callsign | CPA965 |
|---|---|
| Flight time | N/A |
| Altitude | 29800 |
| Route | UGAGO5E UGAGO A470 BEBEM/N0479F298 A470 DOTMI V512 ABBEY |
| Aircraft | A333/H-SDE3GHIJ2J3J5M1RVWXY/LB2D1 |
Departure
| Time | 2026-05-09 04:05 |
|---|---|
| Airport | Hangzhou Xiaoshan International Airport (ZSHC) |
Arrival
| Time | N/A |
|---|---|
| Airport | Hong Kong International Airport (VHHH) |
| Time | Latitude | Longitude | Altitude | Speed | Heading |
|---|---|---|---|---|---|
| 2026-05-09 04:05 | 30.18707 | 120.59925 | 6523 ft | 259 kts | 155° |
| 2026-05-09 04:05 | 30.17016 | 120.60475 | 7192 ft | 262 kts | 177° |
| 2026-05-09 04:05 | 30.15294 | 120.60196 | 7846 ft | 266 kts | 201° |
| 2026-05-09 04:06 | 30.11886 | 120.55324 | 9729 ft | 279 kts | 243° |
| 2026-05-09 04:06 | 30.11030 | 120.53293 | 10160 ft | 290 kts | 243° |
| 2026-05-09 04:07 | 30.10133 | 120.51196 | 10785 ft | 294 kts | 242° |
| 2026-05-09 04:07 | 30.09218 | 120.49097 | 11506 ft | 295 kts | 242° |
| 2026-05-09 04:07 | 30.08284 | 120.46977 | 12177 ft | 298 kts | 242° |
| 2026-05-09 04:07 | 30.07369 | 120.44910 | 12815 ft | 300 kts | 242° |
| 2026-05-09 04:08 | 30.06407 | 120.42748 | 13483 ft | 303 kts | 242° |
| 2026-05-09 04:08 | 30.05447 | 120.40587 | 14144 ft | 306 kts | 242° |
| 2026-05-09 04:08 | 30.04510 | 120.38483 | 14776 ft | 308 kts | 242° |
| 2026-05-09 04:08 | 30.03527 | 120.36282 | 15158 ft | 320 kts | 242° |
| 2026-05-09 04:09 | 30.02523 | 120.34034 | 15426 ft | 336 kts | 242° |
| 2026-05-09 04:09 | 30.01439 | 120.31611 | 15702 ft | 351 kts | 242° |
| 2026-05-09 04:09 | 30.00350 | 120.29177 | 15962 ft | 366 kts | 242° |
| 2026-05-09 04:09 | 29.99202 | 120.26628 | 16220 ft | 380 kts | 241° |
| 2026-05-09 04:10 | 29.98036 | 120.24138 | 16589 ft | 390 kts | 240° |
| 2026-05-09 04:10 | 29.95493 | 120.18785 | 17861 ft | 396 kts | 240° |
| 2026-05-09 04:10 | 29.94167 | 120.15987 | 18514 ft | 399 kts | 240° |